Time;durP1;ratioP1;P1;durP2;ratioP2;P2;SDS_P1;SDS_P2;PMS_P1;PMS_P2;Temp;Humidity;BMP_temperature;BMP_pressure;BME280_temperature;BME280_humidity;BME280_pressure;Samples;Min_cycle;Max_cycle;Signal;HPM_P1;HPM_P2
2022/06/07 04:01:01;;;;;;;3.83;1.67;;;15.30;99.90;;;;;;5736834;23;20050;-76
2022/06/07 04:03:28;;;;;;;2.08;1.80;;;15.30;99.90;;;;;;5026073;28;20482;-76
2022/06/07 04:05:55;;;;;;;3.80;1.85;;;15.40;99.90;;;;;;5031914;28;20470;-75
2022/06/07 04:08:21;;;;;;;2.90;1.98;;;15.40;99.90;;;;;;5032790;28;20037;-75
2022/06/07 04:10:58;;;;;;;2.58;1.90;;;15.40;99.90;;;;;;5028607;28;20034;-76
2022/06/07 04:13:26;;;;;;;2.22;1.60;;;15.50;99.90;;;;;;5014134;28;20105;-76
2022/06/07 04:15:52;;;;;;;5.60;1.90;;;15.50;99.90;;;;;;5015042;28;20566;-76
2022/06/07 04:18:18;;;;;;;1.95;1.75;;;15.60;99.90;;;;;;5012733;28;20091;-75
2022/06/07 04:20:44;;;;;;;2.58;1.70;;;15.60;99.90;;;;;;5014457;28;20034;-75
2022/06/07 04:23:15;;;;;;;2.97;1.58;;;15.60;99.90;;;;;;5013730;28;20403;-75
2022/06/07 04:25:41;;;;;;;4.40;1.70;;;15.70;99.90;;;;;;5012778;28;20026;-75
2022/06/07 04:28:07;;;;;;;3.83;1.80;;;15.70;99.90;;;;;;5011704;28;20031;-75
2022/06/07 04:30:33;;;;;;;3.33;1.70;;;15.70;99.90;;;;;;5014096;28;20113;-75
2022/06/07 04:32:58;;;;;;;3.17;1.50;;;15.60;99.90;;;;;;5013170;28;20046;-75
2022/06/07 04:35:24;;;;;;;2.08;1.70;;;15.60;99.90;;;;;;5013490;28;20033;-75
2022/06/07 04:37:51;;;;;;;2.90;1.63;;;15.60;99.90;;;;;;5012780;28;20035;-75
2022/06/07 04:40:17;;;;;;;3.85;1.65;;;15.60;99.90;;;;;;5012660;28;20033;-75
2022/06/07 04:42:43;;;;;;;2.25;1.60;;;15.70;99.90;;;;;;5013134;28;20038;-75
2022/06/07 04:45:13;;;;;;;3.28;1.52;;;15.60;99.90;;;;;;5011774;28;20030;-75
2022/06/07 04:47:39;;;;;;;1.92;1.35;;;15.60;99.90;;;;;;5012112;28;20531;-75
2022/06/07 04:50:06;;;;;;;4.65;1.80;;;15.60;99.90;;;;;;5013609;28;20053;-75
2022/06/07 04:52:31;;;;;;;3.53;1.40;;;15.60;99.90;;;;;;5012451;28;20134;-75
2022/06/07 04:54:57;;;;;;;2.58;1.50;;;15.60;99.90;;;;;;5012144;28;20502;-75
2022/06/07 04:57:23;;;;;;;2.38;1.70;;;15.60;99.90;;;;;;5011150;28;20044;-75
2022/06/07 04:59:48;;;;;;;1.60;1.50;;;15.60;99.90;;;;;;5013577;28;20058;-76
2022/06/07 05:02:14;;;;;;;2.85;1.30;;;15.60;99.90;;;;;;5011076;28;20053;-75
2022/06/07 05:04:39;;;;;;;1.77;1.40;;;15.60;99.90;;;;;;5011798;28;20031;-75
2022/06/07 05:07:05;;;;;;;2.08;1.30;;;15.60;99.90;;;;;;5010495;28;20388;-76
2022/06/07 05:09:31;;;;;;;1.40;1.20;;;15.70;99.90;;;;;;5013390;28;20042;-76
2022/06/07 05:11:56;;;;;;;2.50;1.50;;;15.80;99.90;;;;;;5014548;28;20542;-75
2022/06/07 05:14:23;;;;;;;3.03;1.55;;;15.90;99.90;;;;;;5014145;28;20041;-75
2022/06/07 05:16:50;;;;;;;2.47;1.40;;;15.90;99.90;;;;;;5015882;28;20488;-75
2022/06/07 05:19:16;;;;;;;1.50;1.40;;;16.10;99.90;;;;;;5015511;28;20137;-75
2022/06/07 05:21:42;;;;;;;1.80;1.30;;;16.20;99.90;;;;;;5014826;28;20104;-75
2022/06/07 05:24:07;;;;;;;3.05;1.65;;;16.40;99.90;;;;;;5016710;28;20030;-75
2022/06/07 05:26:43;;;;;;;3.03;1.20;;;16.60;99.90;;;;;;5016414;28;20084;-75
2022/06/07 05:29:46;;;;;;;2.55;1.10;;;17.00;99.90;;;;;;5021835;28;20089;-76
2022/06/07 05:32:47;;;;;;;1.73;1.30;;;17.30;99.90;;;;;;5026584;28;20049;-77
2022/06/07 05:35:23;;;;;;;1.58;1.17;;;17.50;99.90;;;;;;5020410;28;20405;-76
2022/06/07 05:38:17;;;;;;;1.17;1.08;;;17.60;99.90;;;;;;5026040;28;20090;-77
2022/06/07 05:41:10;;;;;;;1.02;0.95;;;17.80;99.90;;;;;;5029373;28;20046;-76
2022/06/07 05:44:39;;;;;;;3.03;0.85;;;17.80;99.90;;;;;;5029397;28;20042;-76
2022/06/07 05:50:41;;;;;;;1.67;0.85;;;17.30;99.90;;;;;;5032992;28;20037;-77
2022/06/07 05:53:11;;;;;;;2.08;0.95;;;17.10;99.90;;;;;;5027193;28;20046;-76
2022/06/07 05:56:32;;;;;;;1.73;0.93;;;17.00;99.90;;;;;;5026985;28;20030;-76
2022/06/07 05:58:58;;;;;;;1.60;0.95;;;16.90;99.90;;;;;;5025188;28;20039;-77
2022/06/07 06:01:26;;;;;;;1.48;0.95;;;16.90;99.90;;;;;;5025315;28;20038;-77
2022/06/07 06:03:52;;;;;;;2.75;0.80;;;17.00;99.90;;;;;;5025394;28;20034;-77
2022/06/07 06:06:18;;;;;;;1.52;0.90;;;17.10;99.90;;;;;;5027631;28;20044;-77
2022/06/07 06:11:28;;;;;;;1.67;1.00;;;17.10;99.90;;;;;;5026538;28;20045;-76
2022/06/07 06:13:55;;;;;;;2.58;0.85;;;17.20;99.90;;;;;;5024551;28;20034;-77
2022/06/07 06:16:22;;;;;;;2.72;1.10;;;17.30;99.90;;;;;;5025809;28;20037;-76
2022/06/07 06:18:53;;;;;;;2.90;1.20;;;17.30;99.90;;;;;;5025516;28;20050;-76
2022/06/07 06:21:22;;;;;;;1.08;0.98;;;17.30;99.90;;;;;;5023592;28;20077;-82
2022/06/07 06:23:48;;;;;;;3.75;1.13;;;17.40;99.90;;;;;;5021295;28;20035;-75
2022/06/07 06:26:15;;;;;;;2.17;1.05;;;17.40;99.90;;;;;;5019694;28;20085;-77
2022/06/07 06:28:44;;;;;;;1.95;1.13;;;17.50;99.90;;;;;;5022690;28;20042;-76
2022/06/07 06:31:11;;;;;;;1.25;0.90;;;17.60;99.90;;;;;;5022446;28;20034;-77
2022/06/07 06:33:39;;;;;;;1.50;1.13;;;17.80;99.90;;;;;;5020298;28;20034;-77
2022/06/07 06:36:07;;;;;;;7.03;1.38;;;17.80;99.90;;;;;;5020906;28;20041;-76
2022/06/07 06:38:34;;;;;;;2.83;1.40;;;18.20;99.90;;;;;;5015991;28;20034;-76
2022/06/07 06:41:10;;;;;;;3.30;1.30;;;18.30;99.90;;;;;;5015227;28;20030;-76
2022/06/07 06:43:36;;;;;;;2.03;1.05;;;18.30;99.90;;;;;;5014894;28;20043;-76
2022/06/07 06:46:10;;;;;;;1.63;1.13;;;18.30;99.90;;;;;;5015795;28;20031;-76
2022/06/07 06:48:36;;;;;;;2.38;1.10;;;18.40;99.90;;;;;;5015150;28;20034;-76
2022/06/07 06:51:04;;;;;;;1.58;1.02;;;18.50;99.90;;;;;;5014883;28;20031;-76
2022/06/07 06:53:31;;;;;;;1.50;1.23;;;18.60;99.90;;;;;;5014912;28;20042;-76
2022/06/07 06:55:57;;;;;;;3.10;1.27;;;18.60;99.90;;;;;;5014891;28;20042;-76
2022/06/07 06:58:25;;;;;;;2.63;1.08;;;18.60;99.90;;;;;;5014758;28;20030;-76
2022/06/07 07:01:00;;;;;;;2.83;1.10;;;18.80;99.90;;;;;;5014654;28;20491;-76
2022/06/07 07:03:26;;;;;;;3.08;1.27;;;18.70;99.90;;;;;;5015062;28;20093;-76
2022/06/07 07:05:52;;;;;;;2.75;1.30;;;18.70;99.90;;;;;;5014943;28;20043;-76
2022/06/07 07:08:18;;;;;;;2.00;1.00;;;18.50;99.90;;;;;;5015678;28;20038;-76
2022/06/07 07:10:43;;;;;;;3.92;1.13;;;18.40;99.90;;;;;;5014776;28;22679;-76
2022/06/07 07:13:09;;;;;;;3.22;1.20;;;18.30;99.90;;;;;;5011925;28;20089;-76
2022/06/07 07:15:35;;;;;;;2.05;1.00;;;18.20;99.90;;;;;;5015000;28;20518;-76
2022/06/07 07:18:01;;;;;;;1.42;1.17;;;18.40;99.90;;;;;;5014034;28;20037;-76
2022/06/07 07:20:26;;;;;;;2.08;1.00;;;18.60;99.90;;;;;;5015060;28;20027;-76
2022/06/07 07:22:52;;;;;;;2.13;1.13;;;18.80;99.90;;;;;;5015526;28;20037;-77
2022/06/07 07:25:17;;;;;;;1.80;1.20;;;19.10;99.90;;;;;;5014398;28;20034;-76
2022/06/07 07:27:44;;;;;;;5.25;1.30;;;19.50;99.90;;;;;;5013758;28;20030;-77
2022/06/07 07:30:11;;;;;;;2.17;1.10;;;19.80;99.90;;;;;;5013893;28;20030;-77
2022/06/07 07:32:36;;;;;;;2.20;1.10;;;20.30;99.90;;;;;;5014601;28;20035;-76
2022/06/07 07:35:02;;;;;;;2.13;0.95;;;20.20;99.60;;;;;;5013646;28;20034;-77
2022/06/07 07:37:27;;;;;;;1.75;1.10;;;20.30;98.80;;;;;;5014230;28;20092;-76
2022/06/07 07:39:53;;;;;;;2.13;1.10;;;20.50;98.70;;;;;;5012100;28;20405;-76
2022/06/07 07:42:19;;;;;;;1.83;1.10;;;20.50;98.90;;;;;;5013820;28;20080;-77
2022/06/07 07:44:44;;;;;;;2.25;1.00;;;20.60;98.20;;;;;;5012841;28;25333;-77
2022/06/07 07:47:10;;;;;;;2.40;1.08;;;20.60;98.00;;;;;;5015182;28;20043;-79
2022/06/07 07:49:35;;;;;;;4.78;1.15;;;20.70;97.90;;;;;;5014236;28;20034;-77
2022/06/07 07:52:01;;;;;;;2.47;1.10;;;21.10;98.40;;;;;;5013617;28;20037;-77
2022/06/07 07:54:28;;;;;;;2.92;0.90;;;21.30;97.30;;;;;;5013659;28;20046;-77
2022/06/07 07:56:55;;;;;;;3.10;1.20;;;21.20;96.30;;;;;;5013450;28;20338;-77
2022/06/07 07:59:20;;;;;;;3.15;1.00;;;21.00;96.80;;;;;;5013455;28;20164;-77
2022/06/07 08:01:47;;;;;;;1.23;1.05;;;21.00;97.70;;;;;;5011466;28;20536;-77
2022/06/07 08:04:12;;;;;;;4.53;1.48;;;20.90;98.10;;;;;;5014281;28;20045;-77
2022/06/07 08:06:38;;;;;;;2.15;1.17;;;20.80;97.50;;;;;;5014120;28;20392;-77
2022/06/07 08:09:08;;;;;;;3.65;1.15;;;20.70;96.50;;;;;;5013885;28;20112;-77
2022/06/07 08:11:35;;;;;;;1.63;1.13;;;20.90;97.20;;;;;;5013003;28;20038;-77
2022/06/07 08:14:03;;;;;;;1.88;1.10;;;21.40;96.10;;;;;;5013488;28;20035;-76
2022/06/07 08:16:29;;;;;;;1.88;1.10;;;21.90;94.60;;;;;;5013999;28;20400;-78
2022/06/07 08:18:54;;;;;;;2.08;1.33;;;22.00;95.00;;;;;;5015370;28;20042;-80
2022/06/07 08:21:25;;;;;;;3.53;1.33;;;22.20;94.60;;;;;;5015514;28;20037;-79
2022/06/07 08:23:53;;;;;;;3.33;1.08;;;22.40;94.70;;;;;;5019058;28;20046;-80
2022/06/07 08:26:19;;;;;;;5.05;1.20;;;22.50;94.70;;;;;;5021070;28;20042;-80
2022/06/07 08:28:45;;;;;;;1.75;1.05;;;22.40;92.70;;;;;;5020705;28;20487;-80
2022/06/07 08:31:24;;;;;;;6.43;1.27;;;22.10;93.20;;;;;;5022990;28;20034;-80
2022/06/07 08:39:18;;;;;;;2.10;1.08;;;21.90;93.20;;;;;;5014453;28;20519;-78
2022/06/07 08:41:49;;;;;;;1.38;1.10;;;22.00;92.70;;;;;;5012871;28;20101;-78
2022/06/07 08:44:22;;;;;;;1.15;1.05;;;22.10;95.50;;;;;;5013056;28;20495;-79
2022/06/07 08:46:52;;;;;;;2.03;1.00;;;22.20;93.20;;;;;;5016883;28;20035;-78
2022/06/07 08:49:18;;;;;;;2.55;1.33;;;22.20;92.40;;;;;;5016813;28;20545;-79
2022/06/07 08:52:11;;;;;;;2.92;1.20;;;21.80;93.70;;;;;;5015759;28;20026;-79
2022/06/07 08:54:39;;;;;;;1.38;0.95;;;21.50;93.80;;;;;;5016474;28;20066;-77
2022/06/07 08:57:26;;;;;;;2.58;1.17;;;21.00;93.00;;;;;;5018540;28;20141;-77
2022/06/07 08:59:56;;;;;;;3.70;1.20;;;21.20;94.00;;;;;;5017915;28;20026;-75
2022/06/07 09:02:42;;;;;;;4.88;0.98;;;21.80;93.10;;;;;;5016127;28;20492;-74
2022/06/07 09:05:16;;;;;;;1.73;0.95;;;22.00;91.00;;;;;;5010043;28;20109;-75
2022/06/07 09:07:43;;;;;;;3.38;1.10;;;22.50;91.20;;;;;;4996820;28;20035;-75
2022/06/07 09:13:15;;;;;;;2.85;1.00;;;22.40;90.60;;;;;;4996527;28;20050;-74
2022/06/07 09:15:42;;;;;;;1.58;1.10;;;22.40;89.80;;;;;;4996403;28;20031;-75
2022/06/07 09:18:13;;;;;;;1.48;1.00;;;22.50;90.00;;;;;;4996431;28;20039;-74
2022/06/07 09:20:42;;;;;;;2.17;0.80;;;22.80;90.20;;;;;;4996619;28;20118;-75
2022/06/07 09:23:19;;;;;;;1.30;0.80;;;23.00;89.40;;;;;;4995923;28;20070;-75
2022/06/07 09:25:49;;;;;;;1.80;1.10;;;23.00;90.90;;;;;;5022562;28;20492;-76
2022/06/07 09:28:17;;;;;;;0.93;0.80;;;23.00;88.80;;;;;;5035488;28;20061;-76
2022/06/07 09:30:46;;;;;;;1.52;0.93;;;23.10;87.20;;;;;;5034891;28;20026;-76
2022/06/07 09:33:32;;;;;;;1.45;0.80;;;23.40;85.10;;;;;;5035245;28;20585;-76
2022/06/07 09:36:05;;;;;;;1.88;1.00;;;24.00;85.00;;;;;;5035181;28;20034;-76
2022/06/07 09:38:36;;;;;;;4.47;2.28;;;23.70;82.60;;;;;;5035783;28;20049;-76
2022/06/07 09:41:36;;;;;;;2.20;1.00;;;23.30;85.10;;;;;;5035658;28;20479;-76
2022/06/07 09:44:35;;;;;;;2.03;1.00;;;23.80;82.50;;;;;;5035035;28;20038;-78
2022/06/07 09:47:00;;;;;;;4.00;1.10;;;24.20;81.50;;;;;;5033682;28;20526;-76
2022/06/07 09:49:32;;;;;;;3.63;0.90;;;24.00;84.70;;;;;;5035836;28;20038;-76
2022/06/07 09:52:13;;;;;;;3.05;0.90;;;23.80;86.30;;;;;;5036624;28;20030;-76
2022/06/07 09:54:42;;;;;;;1.77;1.00;;;24.00;85.20;;;;;;5035867;28;20041;-75
2022/06/07 09:57:08;;;;;;;2.83;0.80;;;23.90;82.90;;;;;;5034476;28;20042;-75
2022/06/07 09:59:50;;;;;;;2.25;0.95;;;23.60;87.50;;;;;;5033537;28;20040;-75
2022/06/07 10:02:24;;;;;;;2.00;1.02;;;23.20;90.00;;;;;;5034249;28;20041;-77
2022/06/07 10:05:16;;;;;;;2.10;1.00;;;23.00;85.50;;;;;;5035539;28;20034;-76
2022/06/07 10:07:50;;;;;;;2.78;0.98;;;22.90;86.90;;;;;;5036110;28;20038;-76
2022/06/07 10:10:41;;;;;;;5.75;1.20;;;23.00;87.40;;;;;;5036336;28;20117;-76
2022/06/07 10:13:38;;;;;;;1.55;0.90;;;22.60;87.60;;;;;;5034891;28;20147;-76
2022/06/07 10:16:22;;;;;;;0.98;0.88;;;22.50;89.90;;;;;;5035535;28;20467;-77
2022/06/07 10:19:13;;;;;;;2.70;1.05;;;22.50;89.60;;;;;;5035982;28;20038;-76
2022/06/07 10:22:21;;;;;;;1.08;0.88;;;22.50;88.20;;;;;;5036216;28;20069;-78
2022/06/07 10:25:15;;;;;;;2.90;1.02;;;22.80;85.80;;;;;;4992872;28;20512;-76
2022/06/07 10:27:50;;;;;;;1.20;0.80;;;22.90;86.10;;;;;;4993956;28;21057;-76
2022/06/07 10:30:32;;;;;;;1.00;0.85;;;23.00;83.90;;;;;;5025214;28;20085;-76
2022/06/07 10:33:16;;;;;;;2.28;1.17;;;22.90;81.50;;;;;;5034964;28;20495;-77
2022/06/07 10:36:07;;;;;;;2.50;0.95;;;22.60;84.00;;;;;;5035739;28;20045;-77
2022/06/07 10:38:39;;;;;;;1.73;0.98;;;22.60;85.90;;;;;;5035341;28;20121;-76
2022/06/07 10:41:47;;;;;;;2.13;1.08;;;22.40;86.10;;;;;;5035140;28;20030;-77
2022/06/07 10:44:50;;;;;;;1.30;0.98;;;22.20;87.50;;;;;;5035558;28;20478;-78
2022/06/07 10:47:25;;;;;;;2.30;1.20;;;22.30;89.60;;;;;;5035531;28;20113;-76
2022/06/07 10:50:19;;;;;;;1.58;1.10;;;22.50;87.00;;;;;;5035335;28;20034;-75
2022/06/07 10:53:05;;;;;;;1.23;1.02;;;22.70;86.70;;;;;;5029135;28;20058;-75
2022/06/07 10:55:35;;;;;;;2.10;0.90;;;23.10;88.20;;;;;;5035287;28;20842;-75
2022/06/07 10:58:25;;;;;;;3.13;1.00;;;23.60;84.20;;;;;;5034661;28;20088;-75
2022/06/07 11:00:56;;;;;;;3.15;1.30;;;23.60;83.10;;;;;;5033831;28;20523;-75
2022/06/07 11:03:53;;;;;;;1.95;1.15;;;22.80;82.20;;;;;;5034820;28;20096;-75
2022/06/07 11:09:47;;;;;;;1.33;1.10;;;22.10;86.10;;;;;;5031628;28;20057;-74
2022/06/07 11:12:25;;;;;;;2.92;1.10;;;22.30;87.10;;;;;;5034369;28;20030;-75
2022/06/07 11:15:05;;;;;;;4.03;0.95;;;23.00;85.70;;;;;;5035150;28;20076;-75
2022/06/07 11:17:47;;;;;;;1.17;1.05;;;23.60;83.90;;;;;;5035062;28;20395;-75
2022/06/07 11:20:21;;;;;;;3.20;1.13;;;23.50;84.70;;;;;;5034804;28;20403;-75
2022/06/07 11:23:13;;;;;;;2.70;0.90;;;23.20;82.10;;;;;;5034115;28;20033;-75
2022/06/07 11:26:06;;;;;;;3.25;0.93;;;22.90;83.00;;;;;;5033547;28;20118;-75
2022/06/07 11:28:42;;;;;;;1.35;0.80;;;23.20;84.70;;;;;;5028375;28;20041;-75
2022/06/07 11:31:25;;;;;;;1.83;0.95;;;23.50;83.00;;;;;;5032665;28;20553;-76
2022/06/07 11:33:51;;;;;;;1.95;0.90;;;24.20;79.80;;;;;;5033104;28;20120;-75
2022/06/07 11:36:27;;;;;;;1.70;1.00;;;24.60;77.60;;;;;;5033013;28;20112;-76
2022/06/07 11:38:58;;;;;;;2.20;1.02;;;25.60;77.40;;;;;;5037241;28;20041;-76
2022/06/07 11:41:39;;;;;;;1.02;0.82;;;26.80;80.90;;;;;;5037914;28;20124;-76
2022/06/07 11:44:10;;;;;;;2.30;1.33;;;27.30;72.20;;;;;;5039430;28;20049;-75
2022/06/07 11:47:04;;;;;;;2.22;0.90;;;26.70;73.80;;;;;;5037688;28;20030;-75
2022/06/07 11:49:57;;;;;;;0.88;0.75;;;26.10;73.40;;;;;;5038812;28;20034;-75
2022/06/07 11:52:30;;;;;;;1.55;0.98;;;25.30;77.00;;;;;;5028038;28;20116;-76
2022/06/07 11:55:07;;;;;;;2.63;0.85;;;25.10;81.20;;;;;;5036426;28;20123;-75
2022/06/07 11:57:55;;;;;;;3.10;0.90;;;25.20;74.70;;;;;;5035006;28;20033;-75
2022/06/07 12:00:23;;;;;;;2.03;0.95;;;25.80;75.30;;;;;;5032715;28;20144;-75
2022/06/07 12:02:57;;;;;;;1.77;0.90;;;26.70;74.60;;;;;;5018346;28;20165;-75
2022/06/07 12:05:52;;;;;;;1.58;0.90;;;26.80;70.10;;;;;;5015130;28;20088;-75
2022/06/07 12:08:28;;;;;;;3.13;1.02;;;26.30;72.50;;;;;;5015426;28;20030;-76
2022/06/07 12:11:26;;;;;;;1.48;1.00;;;27.00;72.10;;;;;;5013236;28;20063;-77
2022/06/07 12:14:23;;;;;;;3.25;0.90;;;26.70;69.60;;;;;;5015547;28;20043;-76
2022/06/07 12:17:01;;;;;;;1.30;0.80;;;26.20;71.10;;;;;;5015207;28;20027;-76
2022/06/07 12:19:34;;;;;;;1.80;0.90;;;25.70;71.80;;;;;;5017083;28;20085;-75
2022/06/07 12:22:06;;;;;;;1.50;1.05;;;25.20;74.50;;;;;;5015369;28;20193;-75
2022/06/07 12:24:43;;;;;;;2.72;0.90;;;24.10;76.80;;;;;;5017308;28;20500;-75
2022/06/07 12:27:29;;;;;;;3.38;1.30;;;23.80;80.10;;;;;;5019516;28;20038;-75
2022/06/07 12:30:04;;;;;;;1.50;0.90;;;24.20;79.70;;;;;;5018385;28;20043;-75
2022/06/07 12:32:36;;;;;;;2.47;1.02;;;25.50;75.40;;;;;;5016973;28;20027;-75
2022/06/07 12:35:19;;;;;;;1.42;1.00;;;26.50;73.70;;;;;;5016850;28;20039;-76
2022/06/07 12:37:56;;;;;;;3.92;1.00;;;26.90;71.70;;;;;;5020789;28;20030;-75
2022/06/07 12:40:33;;;;;;;2.80;1.05;;;26.70;74.00;;;;;;5017945;28;20194;-75
2022/06/07 12:42:59;;;;;;;2.78;1.02;;;27.20;68.20;;;;;;5018506;28;20026;-75
2022/06/07 12:45:34;;;;;;;1.95;0.80;;;26.60;68.30;;;;;;5016881;28;20038;-76
2022/06/07 12:48:14;;;;;;;1.33;0.90;;;27.10;68.50;;;;;;5018028;28;20030;-75
2022/06/07 12:50:42;;;;;;;1.85;0.80;;;26.30;68.80;;;;;;5016054;28;20116;-76
2022/06/07 12:53:26;;;;;;;1.80;0.80;;;25.70;69.90;;;;;;5017672;28;20034;-76
2022/06/07 12:56:11;;;;;;;0.95;0.70;;;26.40;71.20;;;;;;5017023;28;20031;-76
2022/06/07 12:58:45;;;;;;;1.65;0.90;;;27.10;70.40;;;;;;5019377;28;20038;-75
2022/06/07 13:01:32;;;;;;;1.25;0.90;;;27.30;70.30;;;;;;5018993;28;20049;-75
2022/06/07 13:04:03;;;;;;;2.33;1.00;;;27.90;68.00;;;;;;5017437;28;20040;-76
2022/06/07 13:06:29;;;;;;;1.85;0.80;;;28.00;70.40;;;;;;5017334;28;20038;-76
2022/06/07 13:09:07;;;;;;;1.45;0.90;;;27.60;65.50;;;;;;5017288;28;20030;-76
2022/06/07 13:11:37;;;;;;;1.73;0.77;;;27.70;67.70;;;;;;5015796;28;20041;-76
2022/06/07 13:14:05;;;;;;;1.95;0.60;;;28.10;63.90;;;;;;5015099;28;20381;-76
2022/06/07 13:16:46;;;;;;;1.77;0.60;;;28.70;68.00;;;;;;5017718;28;20134;-76
2022/06/07 13:19:14;;;;;;;3.40;1.00;;;30.00;60.30;;;;;;5019211;28;20034;-76
2022/06/07 13:21:48;;;;;;;1.90;0.90;;;31.20;64.00;;;;;;5018264;28;20041;-76
2022/06/07 13:24:24;;;;;;;1.30;0.80;;;31.50;60.70;;;;;;5016230;28;20034;-76
2022/06/07 13:26:57;;;;;;;1.13;0.70;;;30.50;58.00;;;;;;5017925;28;20035;-76
2022/06/07 13:29:36;;;;;;;1.58;0.70;;;30.10;59.30;;;;;;5016343;28;20034;-76
2022/06/07 13:32:05;;;;;;;1.67;0.98;;;30.30;60.00;;;;;;5017653;28;20101;-77
2022/06/07 13:34:50;;;;;;;1.73;0.85;;;31.00;62.10;;;;;;5019233;28;20042;-77
2022/06/07 13:37:28;;;;;;;1.17;1.02;;;31.80;59.30;;;;;;5021222;28;20026;-77
2022/06/07 13:40:16;;;;;;;2.05;1.00;;;31.30;61.80;;;;;;5022975;28;20516;-77
2022/06/07 13:42:43;;;;;;;4.70;0.80;;;30.10;65.00;;;;;;5023406;28;20480;-77
2022/06/07 13:45:11;;;;;;;2.13;0.90;;;29.70;62.20;;;;;;5025888;28;20034;-77
2022/06/07 13:48:00;;;;;;;1.98;0.90;;;29.90;62.10;;;;;;5025754;28;20031;-77
2022/06/07 13:53:47;;;;;;;3.63;0.90;;;31.90;59.00;;;;;;5024025;28;20031;-77
2022/06/07 13:56:15;;;;;;;0.73;0.70;;;31.60;55.70;;;;;;5019430;28;20515;-77
2022/06/07 13:58:46;;;;;;;1.25;0.85;;;30.70;61.40;;;;;;5020221;28;20041;-77
2022/06/07 14:01:28;;;;;;;0.73;0.50;;;31.70;59.00;;;;;;5020516;28;20789;-77
2022/06/07 14:04:00;;;;;;;1.13;0.80;;;32.10;54.40;;;;;;5018432;28;20484;-76
2022/06/07 14:06:32;;;;;;;1.60;0.70;;;32.10;58.70;;;;;;5022447;28;20041;-77
2022/06/07 14:09:01;;;;;;;1.25;0.60;;;32.00;57.00;;;;;;5025715;28;20029;-77
2022/06/07 14:11:36;;;;;;;1.40;0.90;;;32.20;59.20;;;;;;5023249;28;20034;-77
2022/06/07 14:14:24;;;;;;;1.33;0.82;;;32.30;57.20;;;;;;5025039;28;20126;-77
2022/06/07 14:17:03;;;;;;;3.20;0.70;;;30.60;56.30;;;;;;5023212;28;20060;-77
2022/06/07 14:19:35;;;;;;;0.90;0.90;;;29.30;59.60;;;;;;5007987;28;20124;-77
2022/06/07 14:22:15;;;;;;;1.50;0.68;;;29.10;61.40;;;;;;5022560;28;20034;-76
2022/06/07 14:24:42;;;;;;;1.23;0.73;;;30.20;63.70;;;;;;5022274;28;20046;-77
2022/06/07 14:27:14;;;;;;;3.35;0.90;;;32.50;58.10;;;;;;5023796;28;20030;-76
2022/06/07 14:29:40;;;;;;;2.00;0.88;;;34.00;54.30;;;;;;5021869;28;20127;-77
2022/06/07 14:32:06;;;;;;;3.22;0.95;;;35.50;51.40;;;;;;5022283;28;20037;-77
2022/06/07 14:34:31;;;;;;;2.17;0.88;;;35.90;49.60;;;;;;5021182;28;20031;-77
2022/06/07 14:36:59;;;;;;;2.75;1.10;;;34.10;51.60;;;;;;5019289;28;20109;-76
2022/06/07 14:39:25;;;;;;;4.13;1.00;;;32.20;54.50;;;;;;5023636;28;20026;-77
2022/06/07 14:41:50;;;;;;;3.25;0.98;;;32.40;60.80;;;;;;5021730;28;20034;-77
2022/06/07 14:44:16;;;;;;;4.45;0.80;;;34.20;54.80;;;;;;5022467;28;20062;-77
2022/06/07 14:46:43;;;;;;;0.60;0.60;;;36.40;50.90;;;;;;5025344;28;20034;-77
2022/06/07 14:49:17;;;;;;;2.47;0.88;;;36.80;48.70;;;;;;5026126;28;20058;-76
2022/06/07 14:51:44;;;;;;;0.73;0.73;;;35.00;47.80;;;;;;5026062;28;20065;-77
2022/06/07 14:54:19;;;;;;;2.50;0.98;;;32.60;51.50;;;;;;5025531;28;20031;-77
2022/06/07 14:56:46;;;;;;;1.48;0.90;;;30.10;58.60;;;;;;5026176;28;20034;-76
2022/06/07 14:59:13;;;;;;;2.05;0.98;;;28.30;59.90;;;;;;5026904;28;20086;-76
2022/06/07 15:01:51;;;;;;;1.55;0.73;;;27.80;62.00;;;;;;5025451;28;20050;-76
2022/06/07 15:04:39;;;;;;;1.98;0.80;;;28.00;62.80;;;;;;5026249;28;20045;-76
2022/06/07 15:07:23;;;;;;;1.25;0.80;;;29.80;63.50;;;;;;5024993;28;20534;-77
2022/06/07 15:09:49;;;;;;;1.02;0.85;;;32.90;54.40;;;;;;5025820;28;20038;-77
2022/06/07 15:12:15;;;;;;;0.73;0.70;;;31.40;54.60;;;;;;5024919;28;20389;-76
2022/06/07 15:14:42;;;;;;;1.15;0.80;;;29.50;59.10;;;;;;5023746;28;20027;-76
2022/06/07 15:17:14;;;;;;;3.95;1.00;;;28.00;62.80;;;;;;5023621;28;20042;-76
2022/06/07 15:19:40;;;;;;;1.92;0.90;;;27.10;65.00;;;;;;5024121;28;20062;-76
2022/06/07 15:22:11;;;;;;;2.47;0.90;;;26.40;65.60;;;;;;5023725;28;20050;-76
2022/06/07 15:24:36;;;;;;;3.47;2.25;;;25.80;66.70;;;;;;5023847;28;20031;-76
2022/06/07 15:27:03;;;;;;;2.75;1.10;;;29.00;68.90;;;;;;5023905;28;20045;-76
2022/06/07 15:32:19;;;;;;;1.52;0.82;;;30.60;56.30;;;;;;5022887;28;20110;-76
2022/06/07 15:34:46;;;;;;;3.25;1.85;;;28.70;60.00;;;;;;5022060;28;20049;-76
2022/06/07 15:37:13;;;;;;;1.20;0.70;;;27.50;63.50;;;;;;5023123;28;20030;-76
2022/06/07 15:39:39;;;;;;;1.88;0.70;;;28.40;71.40;;;;;;5021856;28;20066;-76
2022/06/07 15:44:50;;;;;;;0.93;0.70;;;35.10;53.90;;;;;;5021109;28;20030;-77
2022/06/07 15:47:16;;;;;;;1.65;0.90;;;37.70;48.30;;;;;;5020625;28;20053;-77
2022/06/07 15:49:42;;;;;;;0.52;0.52;;;38.40;45.00;;;;;;5019669;28;20022;-77
2022/06/07 15:52:08;;;;;;;1.30;0.95;;;34.80;46.20;;;;;;5018186;28;20035;-76
2022/06/07 15:54:34;;;;;;;1.98;1.48;;;31.70;52.20;;;;;;5017621;28;20038;-76
2022/06/07 15:57:00;;;;;;;1.80;0.90;;;30.00;55.50;;;;;;5018660;28;20030;-76
2022/06/07 15:59:25;;;;;;;1.90;0.80;;;28.70;58.80;;;;;;5018395;28;20165;-76
2022/06/07 16:01:51;;;;;;;1.65;0.88;;;28.00;59.40;;;;;;5016091;28;20049;-76
2022/06/07 16:04:16;;;;;;;1.13;1.00;;;27.20;62.00;;;;;;5015460;28;20620;-76
2022/06/07 16:06:43;;;;;;;1.20;0.73;;;27.40;63.60;;;;;;5016857;28;20029;-76
2022/06/07 16:09:11;;;;;;;0.70;0.70;;;27.80;61.40;;;;;;5019999;28;20038;-76
2022/06/07 16:11:37;;;;;;;0.77;0.68;;;27.40;61.50;;;;;;5019876;28;20030;-76
2022/06/07 16:14:04;;;;;;;1.42;1.00;;;26.80;63.70;;;;;;5019307;28;20056;-76
2022/06/07 16:16:35;;;;;;;4.07;0.80;;;26.40;68.40;;;;;;5019790;28;20027;-76
2022/06/07 16:19:00;;;;;;;1.10;0.70;;;26.10;67.60;;;;;;5020402;28;20034;-76
2022/06/07 16:21:27;;;;;;;2.28;0.90;;;25.50;68.30;;;;;;5021271;28;20476;-76
2022/06/07 16:23:55;;;;;;;1.00;0.70;;;25.30;69.60;;;;;;5019480;28;20125;-76
2022/06/07 16:26:21;;;;;;;0.75;0.68;;;25.10;69.80;;;;;;5020513;28;20082;-76
2022/06/07 16:34:17;;;;;;;1.65;0.93;;;25.30;71.60;;;;;;5020736;28;20035;-76
2022/06/07 16:36:44;;;;;;;0.90;0.90;;;25.60;70.20;;;;;;5019169;28;20076;-76
2022/06/07 16:39:12;;;;;;;1.13;0.98;;;25.80;69.70;;;;;;5019343;28;20030;-76
2022/06/07 16:41:37;;;;;;;0.88;0.73;;;25.60;72.10;;;;;;5017488;28;20031;-78
2022/06/07 16:44:08;;;;;;;2.20;0.75;;;25.10;70.60;;;;;;5017050;28;20038;-76
2022/06/07 16:46:45;;;;;;;5.57;0.90;;;24.40;72.30;;;;;;5017001;28;20113;-77
2022/06/07 16:49:23;;;;;;;2.35;0.80;;;23.50;75.30;;;;;;5015652;28;20481;-77
2022/06/07 16:51:50;;;;;;;4.47;0.73;;;22.90;77.10;;;;;;5013771;28;20162;-77
2022/06/07 16:54:18;;;;;;;2.28;0.60;;;22.70;79.60;;;;;;5013682;28;20083;-77
2022/06/07 16:56:44;;;;;;;2.65;0.80;;;22.40;79.20;;;;;;5013856;28;20033;-76
2022/06/07 16:59:11;;;;;;;3.88;0.70;;;22.20;83.10;;;;;;5012717;28;20077;-77
2022/06/07 17:01:39;;;;;;;1.40;0.70;;;22.10;81.60;;;;;;5013033;28;20492;-77
2022/06/07 17:04:06;;;;;;;1.95;0.80;;;21.80;82.70;;;;;;5013003;28;20041;-77
2022/06/07 17:06:31;;;;;;;1.25;0.77;;;21.30;83.60;;;;;;5012171;28;20658;-76
2022/06/07 17:08:58;;;;;;;2.38;0.70;;;21.10;84.40;;;;;;5017989;28;21353;-77
2022/06/07 17:11:24;;;;;;;1.67;0.50;;;20.80;86.30;;;;;;5018331;28;20039;-80
2022/06/07 17:13:50;;;;;;;0.68;0.47;;;20.70;86.70;;;;;;5020550;28;20046;-77
2022/06/07 17:16:17;;;;;;;1.77;0.75;;;20.50;87.40;;;;;;5022095;28;20030;-77
2022/06/07 17:18:43;;;;;;;2.70;0.70;;;20.50;87.50;;;;;;5018903;28;20377;-78
2022/06/07 17:21:09;;;;;;;3.97;0.90;;;20.40;88.40;;;;;;5017979;28;20040;-76
2022/06/07 17:23:38;;;;;;;3.17;1.15;;;20.40;88.70;;;;;;5017831;28;20034;-77
2022/06/07 17:26:06;;;;;;;2.80;0.80;;;20.30;89.40;;;;;;5015420;28;20039;-76
2022/06/07 17:28:31;;;;;;;0.70;0.70;;;20.10;90.20;;;;;;5016173;28;20038;-77
2022/06/07 17:30:57;;;;;;;2.72;0.75;;;19.90;91.50;;;;;;5016257;28;20068;-77
2022/06/07 17:33:23;;;;;;;1.02;0.73;;;19.70;91.10;;;;;;5015803;28;20411;-76
2022/06/07 17:35:48;;;;;;;3.47;1.48;;;19.60;91.60;;;;;;5016343;28;20034;-78
2022/06/07 17:38:15;;;;;;;1.95;0.90;;;19.50;92.50;;;;;;5016213;28;20392;-76
2022/06/07 17:40:41;;;;;;;1.10;0.80;;;19.30;93.80;;;;;;5015346;28;20034;-76
2022/06/07 17:43:07;;;;;;;1.55;0.70;;;19.40;94.50;;;;;;5015035;28;20034;-76
2022/06/07 17:45:33;;;;;;;1.30;0.82;;;19.40;94.70;;;;;;5014999;28;20031;-77
2022/06/07 17:47:59;;;;;;;2.28;0.70;;;19.40;95.00;;;;;;5014986;28;20053;-79